createdAt,value
2023-02-06T00:02:06.981Z,79.75
2023-02-06T00:07:08.808Z,79.93
2023-02-06T00:12:10.492Z,79.54
2023-02-06T00:17:12.097Z,80.38
2023-02-06T00:22:14.326Z,79.98
2023-02-06T00:27:16.148Z,80.25
2023-02-06T00:32:18.047Z,79.85
2023-02-06T00:37:19.746Z,80.45
2023-02-06T00:42:21.366Z,80.32
2023-02-06T00:47:23.102Z,80.02
2023-02-06T00:52:25.473Z,80.04
2023-02-06T00:57:27.301Z,79.65
2023-02-06T01:02:28.938Z,79.46
2023-02-06T01:07:30.792Z,79.88
2023-02-06T01:12:34.960Z,80.17
2023-02-06T01:17:37.204Z,81.33
2023-02-06T01:22:39.900Z,81.18
2023-02-06T01:27:41.545Z,80.81
2023-02-06T01:32:43.545Z,80.22
2023-02-06T01:37:45.179Z,80.09
2023-02-06T01:42:46.882Z,79.93
2023-02-06T01:47:52.388Z,79.44
2023-02-06T01:52:54.941Z,79.52
2023-02-06T01:57:57.208Z,79.75
2023-02-06T02:02:58.967Z,79.94
2023-02-06T02:08:14.785Z,79.42
2023-02-06T02:13:17.228Z,79.47
2023-02-06T02:18:38.167Z,79.36
2023-02-06T02:23:48.016Z,79.27
2023-02-06T02:28:53.550Z,79.12
2023-02-06T02:34:24.525Z,79.02
2023-02-06T02:39:53.364Z,79.38
2023-02-06T02:45:06.242Z,79.20
2023-02-06T02:50:08.507Z,79.38
2023-02-06T02:55:20.766Z,79.28
2023-02-06T03:00:25.605Z,79.38
2023-02-06T03:05:29.524Z,79.26
2023-02-06T03:10:59.227Z,79.17
2023-02-06T03:16:17.203Z,79.14
2023-02-06T03:21:21.838Z,79.32
2023-02-06T03:26:26.883Z,79.21
2023-02-06T03:31:38.956Z,79.32
2023-02-06T03:36:41.121Z,79.14
2023-02-06T03:41:45.347Z,78.79
2023-02-06T03:46:49.356Z,79.18
2023-02-06T03:52:00.174Z,79.18
2023-02-06T03:57:05.713Z,78.76
2023-02-06T04:02:08.112Z,78.44
2023-02-06T04:07:30.919Z,78.35
2023-02-06T04:12:32.757Z,78.23
2023-02-06T04:17:49.640Z,78.40
2023-02-06T04:22:55.605Z,78.31
2023-02-06T04:27:57.367Z,78.10
2023-02-06T04:32:59.032Z,78.62
2023-02-06T04:38:00.839Z,78.64
2023-02-06T04:43:02.485Z,78.78
2023-02-06T04:48:04.090Z,79.07
2023-02-06T04:53:05.897Z,78.57
2023-02-06T04:58:07.563Z,78.60
2023-02-06T05:03:09.184Z,79.02
2023-02-06T05:08:10.822Z,78.81
2023-02-06T05:13:12.714Z,78.96
2023-02-06T05:18:15.180Z,78.94
2023-02-06T05:23:16.869Z,79.55
2023-02-06T05:28:18.928Z,79.39
2023-02-06T05:33:20.783Z,79.08
2023-02-06T05:38:22.485Z,79.35
2023-02-06T05:43:24.624Z,79.76
2023-02-06T05:48:28.786Z,79.53
2023-02-06T05:53:30.423Z,80.02
2023-02-06T05:58:32.289Z,80.09
2023-02-06T06:03:34.135Z,80.21
2023-02-06T06:08:36.251Z,80.35
2023-02-06T06:13:37.888Z,79.93
2023-02-06T06:18:39.499Z,80.49
2023-02-06T06:23:41.145Z,80.57
2023-02-06T06:28:42.771Z,81.05
2023-02-06T06:33:45.147Z,80.87
2023-02-06T06:38:46.759Z,80.67
2023-02-06T06:43:50.089Z,80.15
2023-02-06T06:48:53.061Z,80.65
2023-02-06T06:53:55.090Z,80.89
2023-02-06T06:58:56.818Z,80.70
2023-02-06T07:04:00.130Z,80.10
2023-02-06T07:09:01.911Z,80.17
2023-02-06T07:14:04.663Z,79.89
2023-02-06T07:19:07.527Z,79.52
2023-02-06T07:24:09.148Z,79.34
2023-02-06T07:29:10.765Z,79.42
2023-02-06T07:34:12.806Z,78.71
2023-02-06T07:39:14.591Z,78.22
2023-02-06T07:44:16.508Z,78.73
2023-02-06T07:49:18.252Z,78.55
2023-02-06T07:54:20.884Z,78.19
2023-02-06T07:59:23.543Z,78.80
2023-02-06T08:04:25.223Z,78.50
2023-02-06T08:09:27.164Z,78.35
2023-02-06T08:14:29.106Z,77.98
2023-02-06T08:19:30.672Z,77.92
2023-02-06T08:24:32.981Z,77.13
2023-02-06T08:29:42.279Z,77.20
2023-02-06T08:34:44.554Z,77.26
2023-02-06T08:39:46.220Z,77.11
2023-02-06T08:44:48.216Z,77.19
2023-02-06T08:49:50.996Z,76.24
2023-02-06T08:54:52.969Z,76.92
2023-02-06T08:59:54.605Z,76.62
2023-02-06T09:04:56.432Z,76.42
2023-02-06T09:09:58.293Z,76.36
2023-02-06T09:15:00.099Z,75.83
2023-02-06T09:20:02.159Z,75.10
2023-02-06T09:25:03.877Z,75.50
2023-02-06T09:30:06.138Z,74.27
2023-02-06T09:35:08.004Z,73.97
2023-02-06T09:40:12.783Z,75.10
2023-02-06T09:45:21.993Z,74.14
2023-02-06T09:50:51.551Z,73.71
2023-02-06T09:56:08.210Z,73.26
2023-02-06T10:01:22.367Z,73.51
2023-02-06T10:06:28.753Z,72.22
2023-02-06T10:11:54.704Z,72.45
2023-02-06T10:17:01.272Z,72.16
2023-02-06T10:22:10.023Z,71.83
2023-02-06T10:27:14.446Z,72.50
2023-02-06T10:32:22.960Z,71.89
2023-02-06T10:37:36.796Z,70.84
2023-02-06T10:42:52.536Z,71.20
2023-02-06T10:47:56.335Z,71.11
2023-02-06T10:53:03.845Z,71.45
2023-02-06T10:58:23.885Z,70.06
2023-02-06T11:03:32.713Z,70.74
2023-02-06T11:08:43.790Z,70.24
2023-02-06T11:13:48.849Z,71.15
2023-02-06T11:18:52.168Z,70.35
2023-02-06T11:24:09.963Z,70.45
2023-02-06T11:29:19.490Z,69.53
2023-02-06T11:34:23.756Z,69.41
2023-02-06T11:39:32.291Z,69.34
2023-02-06T11:44:42.049Z,69.11
2023-02-06T11:49:43.990Z,65.78
2023-02-06T11:54:54.402Z,65.95
2023-02-06T11:59:59.101Z,67.01
2023-02-06T12:05:16.591Z,66.78
2023-02-06T12:10:21.679Z,65.38
2023-02-06T12:15:45.523Z,66.09
2023-02-06T12:20:56.068Z,65.51
2023-02-06T12:26:01.693Z,66.01
2023-02-06T12:31:10.545Z,66.20
2023-02-06T12:36:20.856Z,64.98
2023-02-06T12:41:34.419Z,65.68
2023-02-06T12:46:36.676Z,66.46
2023-02-06T12:51:40.985Z,65.87
2023-02-06T12:56:50.243Z,65.96
2023-02-06T13:02:05.557Z,66.56
2023-02-06T13:07:11.289Z,65.99
2023-02-06T13:12:26.192Z,65.61
2023-02-06T13:17:44.836Z,66.20
2023-02-06T13:22:49.311Z,65.60
2023-02-06T13:27:58.868Z,65.74
2023-02-06T13:33:21.031Z,63.89
2023-02-06T13:38:22.585Z,62.91
2023-02-06T13:43:28.375Z,63.91
2023-02-06T13:48:59.440Z,64.52
2023-02-06T13:54:19.899Z,64.10
2023-02-06T13:59:33.655Z,63.67
2023-02-06T14:04:35.425Z,63.29
2023-02-06T14:10:10.122Z,63.81
2023-02-06T14:15:30.695Z,63.56
2023-02-06T14:20:32.334Z,63.97
2023-02-06T14:25:40.015Z,64.27
2023-02-06T14:30:49.804Z,63.55
2023-02-06T14:36:06.918Z,64.37
2023-02-06T14:41:09.126Z,64.18
2023-02-06T14:46:15.796Z,64.33
2023-02-06T14:51:39.571Z,65.29
2023-02-06T14:56:41.360Z,65.15
2023-02-06T15:01:46.524Z,65.33
2023-02-06T15:06:54.114Z,65.63
2023-02-06T15:11:58.879Z,64.98
2023-02-06T15:17:02.554Z,65.38
2023-02-06T15:22:14.501Z,65.02
2023-02-06T15:27:28.189Z,65.65
2023-02-06T15:32:33.940Z,66.30
2023-02-06T15:37:36.164Z,66.05
2023-02-06T15:42:38.061Z,66.68
2023-02-06T15:47:41.651Z,66.60
2023-02-06T15:52:47.073Z,68.90
2023-02-06T15:57:49.547Z,71.70
2023-02-06T16:02:54.194Z,74.71
2023-02-06T16:07:56.389Z,76.39
2023-02-06T16:13:01.587Z,76.02
2023-02-06T16:18:23.503Z,75.96
2023-02-06T16:24:03.909Z,75.61
2023-02-06T16:29:08.574Z,76.58
2023-02-06T16:34:20.575Z,74.74
2023-02-06T16:39:23.626Z,74.39
2023-02-06T16:44:36.012Z,75.62
2023-02-06T16:49:48.171Z,74.87
2023-02-06T16:54:50.813Z,75.61
2023-02-06T16:59:56.504Z,74.96
2023-02-06T17:04:59.096Z,74.60
2023-02-06T17:10:02.491Z,75.89
2023-02-06T17:15:06.464Z,76.44
2023-02-06T17:20:22.916Z,75.63
2023-02-06T17:25:24.579Z,75.87
2023-02-06T17:30:29.288Z,76.32
2023-02-06T17:35:32.193Z,76.37
2023-02-06T17:40:36.206Z,76.52
2023-02-06T17:45:39.680Z,76.44
2023-02-06T17:50:42.243Z,77.30
2023-02-06T17:56:10.704Z,76.81
2023-02-06T18:01:14.092Z,76.33
2023-02-06T18:06:16.996Z,76.37
2023-02-06T18:11:21.119Z,75.95
2023-02-06T18:16:26.122Z,75.53
2023-02-06T18:21:29.423Z,76.48
2023-02-06T18:26:31.261Z,76.04
2023-02-06T18:31:35.744Z,76.81
2023-02-06T18:36:37.702Z,75.89
2023-02-06T18:41:57.932Z,78.22
2023-02-06T18:46:59.585Z,77.87
2023-02-06T18:52:01.608Z,79.53
2023-02-06T18:57:03.417Z,78.67
2023-02-06T19:02:05.237Z,79.33
2023-02-06T19:07:08.729Z,79.50
2023-02-06T19:12:10.495Z,80.20
2023-02-06T19:17:12.120Z,81.80
2023-02-06T19:22:13.817Z,81.32
2023-02-06T19:27:15.658Z,82.28
2023-02-06T19:32:17.861Z,81.95
2023-02-06T19:37:19.587Z,81.93
2023-02-06T19:42:21.403Z,81.93
2023-02-06T19:47:23.500Z,81.50
2023-02-06T19:52:25.136Z,80.58
2023-02-06T19:57:26.836Z,81.11
2023-02-06T20:02:28.528Z,81.19
2023-02-06T20:07:30.694Z,80.94
2023-02-06T20:12:32.788Z,80.87
2023-02-06T20:17:34.449Z,81.37
2023-02-06T20:22:36.380Z,81.34
2023-02-06T20:27:38.059Z,82.68
2023-02-06T20:32:39.828Z,82.27
2023-02-06T20:37:41.464Z,82.46
2023-02-06T20:42:44.531Z,82.84
2023-02-06T20:47:46.217Z,82.28
2023-02-06T20:52:47.880Z,81.81
2023-02-06T20:57:49.734Z,81.95
2023-02-06T21:02:53.091Z,81.98
2023-02-06T21:07:57.341Z,82.24
2023-02-06T21:12:59.215Z,82.80
2023-02-06T21:18:00.910Z,81.77
2023-02-06T21:23:02.833Z,82.93
2023-02-06T21:28:05.534Z,83.12
2023-02-06T21:33:07.185Z,83.26
2023-02-06T21:38:08.869Z,84.00
2023-02-06T21:43:11.085Z,83.66
2023-02-06T21:48:12.802Z,84.27
2023-02-06T21:53:14.412Z,83.17
2023-02-06T21:58:16.629Z,84.09
2023-02-06T22:03:18.267Z,83.60
2023-02-06T22:08:20.059Z,83.08
2023-02-06T22:13:21.982Z,84.06
2023-02-06T22:18:23.583Z,83.58
2023-02-06T22:23:25.271Z,83.90
2023-02-06T22:28:27.371Z,84.08
2023-02-06T22:33:28.976Z,83.60
2023-02-06T22:38:30.596Z,84.00
2023-02-06T22:43:35.049Z,83.87
2023-02-06T22:48:37.711Z,84.79
2023-02-06T22:53:40.293Z,83.75
2023-02-06T22:58:42.399Z,83.73
2023-02-06T23:03:44.008Z,83.70
2023-02-06T23:08:46.031Z,84.37
2023-02-06T23:13:52.025Z,83.74
2023-02-06T23:18:53.860Z,84.13
2023-02-06T23:24:00.766Z,84.89
2023-02-06T23:29:06.016Z,84.15
2023-02-06T23:34:07.880Z,84.45
2023-02-06T23:39:09.835Z,84.67
2023-02-06T23:44:11.802Z,85.01
2023-02-06T23:49:13.497Z,84.79
2023-02-06T23:54:15.136Z,84.72
2023-02-06T23:59:16.734Z,84.41
